Tiempo atmosférico en la estación meteorológica de La Victoria de Acentejo, Santa Cruz de Tenerife (567 m.)



Fecha
DESCASC
Temp. máxima en grados centígrados (hora)
DESCASC
Temp. mínima en grados centígrados (hora)
DESCASC
Temp. media en grados centígrados
DESCASC
Racha de viento máxima en m/sg (hora)
DESCASC
Velocidad máxima media en intervalos de 10 minutos(hora)
DESCASC
Precipitaciones diarias en mm
DESCASC
Precipitaciones de 00:00 a 06:00 en mm
DESCASC
Precipitaciones de 06:00 a 12:00 en mm
DESCASC
Precipitaciones de 12:00 a 18:00 en mm
DESCASC
Precipitaciones de 18:00 a 24:00 en mm
DESCASC
17-09-2020 22.6 (13:00) 17.6 (23:20) 20.1 6.67 (01:10) 3.61 (01:10) 0.2 0 0 0 0.2
15-09-2020 31.3 (11:40) 17.8 (06:20) 24.5 5.83 (19:50) 3.89 (20:00) 0 0 0 0 0
14-09-2020 24.7 (14:10) 15.6 (04:40) 20.2 8.61 (22:50) 3.89 (07:30) 0 0 0 0 0
13-09-2020 22.7 (15:40) 16 (00:00) 19.4 5 (15:10) 3.06 (04:30) 0 0 0 0 0
12-09-2020 23.7 (15:00) 16.1 (07:40) 19.9 5.83 (16:00) 3.33 (15:20) 0.2 0 0 0 0.2
11-09-2020 24.5 (14:40) 15.1 (00:00) 19.8 5.28 (14:50) 3.33 (15:50) 0 0 0 0 0
10-09-2020 27 (15:30) 16.5 (00:00) 21.8 4.72 (12:30) 3.06 (12:30) 0 0 0 0 0
09-09-2020 29.5 (11:10) 19.4 (23:30) 24.4 5 (13:40) 2.5 (02:50) 0 0 0 0 0
08-09-2020 30.3 (17:10) 23.7 (00:00) 27 7.22 (04:10) 3.89 (04:00) 0 0 0 0 0
07-09-2020 32.4 (16:00) 17.5 (02:50) 25 5.28 (21:10) 3.89 (23:50) 0 0 0 0 0
06-09-2020 24.2 (15:30) 13.9 (00:00) 19.1 5.28 (15:40) 3.61 (06:20) 0 0 0 0 0
05-09-2020 23.2 (15:10) 16.3 (00:00) 19.8 5.28 (15:20) 3.06 (14:50) 0 0 0 0 0
04-09-2020 25.6 (17:10) 13.7 (00:00) 19.7 4.72 (14:50) 2.5 (14:50) 0 0 0 0 0
03-09-2020 24.3 (13:50) 14.4 (00:00) 19.3 6.11 (16:00) 3.33 (15:50) 0 0 0 0 0
02-09-2020 23.2 (15:50) 13.8 (00:00) 18.5 5.83 (14:00) 3.61 (07:10) 0 0 0 0 0
01-09-2020 21.9 (16:30) 16.1 (00:00) 19 5.56 (11:20) 4.17 (23:20) 0 0 0 0 0
31-08-2020 19.9 (18:20) 14.5 (00:00) 17.2 7.5 (14:10) 3.89 (05:30) 0 0 0 0 0
30-08-2020 20.2 (18:00) 15.9 (00:00) 18.1 7.5 (16:50) 4.72 (18:10) 6.2 2 3.6 0.6 0
29-08-2020 23.1 (13:50) 16 (00:00) 19.6 7.22 (17:20) 4.17 (17:20) 0.4 0 0 0.4 0
28-08-2020 32.6 (11:10) 21 (00:00) 26.8 5.56 (22:10) 3.61 (02:30) 0 0 0 0 0
27-08-2020 -- (--) -- (--) -- -- (--) -- (--) -- 0 0 -- 0
26-08-2020 37 (11:10) 16.8 (00:00) 26.9 13.89 (09:50) 7.78 (06:10) 0 0 0 0 0
25-08-2020 22.6 (12:00) 15.9 (00:00) 19.3 4.72 (14:50) 3.06 (13:20) 0 0 0 0 0
24-08-2020 24.8 (14:10) 15.3 (06:00) 20 6.39 (15:40) 3.89 (15:40) 0 0 0 0 0
23-08-2020 27.5 (15:40) 16.7 (00:00) 22.1 5.28 (17:30) 2.78 (15:40) 0 0 0 0 0
22-08-2020 29 (10:30) 19.8 (00:00) 24.4 4.72 (14:30) 2.5 (01:00) 0 0 0 0 0
21-08-2020 24.8 (16:50) 17.1 (06:10) 20.9 6.11 (14:10) 3.06 (14:00) 0 0 0 0 0

Gráficas

Temp. máximas Temp. mínimas Temp. medias Precipitaciones Rachas de viento máximas Velocidades máximas media en intervalos de 10 minutos

Datos horarios

Fecha y hora oficial Temperatura (ºC) Velocidad del viento (km/h) Dirección del viento Racha (km/h) Dirección de racha Precipitación (mm) Presión (hPa) Tendencia (hPa) Humedad (%)
2020-09-19 23:00:00 15.9 5 Sur 9 Sur 0 -- -- 65
2020-09-19 22:00:00 16.5 6 Sudoeste 10 Sur 0 -- -- 75
2020-09-19 21:00:00 17.7 4 Sudeste 6 Sudeste 0 -- -- 87
2020-09-19 20:00:00 20.1 5 Noroeste 11 Noroeste 0 -- -- 81
2020-09-19 19:00:00 22.1 8 Norte 15 Norte 0 -- -- 74
2020-09-19 18:00:00 22.9 6 Norte 15 Noroeste 0 -- -- 72
2020-09-19 17:00:00 23.6 8 Noroeste 18 Norte 0 -- -- 68
2020-09-19 16:00:00 23.5 8 Noroeste 16 Norte 0 -- -- 67
2020-09-19 15:00:00 23.7 10 Norte 19 Norte 0 -- -- 66
2020-09-19 14:00:00 23.5 9 Noroeste 16 Norte 0 -- -- 68
2020-09-19 13:00:00 23.2 7 Noroeste 15 Noroeste 0 -- -- 66
2020-09-19 12:00:00 22.3 6 Noroeste 13 Noroeste 0 -- -- 68
2020-09-19 11:00:00 20.9 5 Noroeste 11 Noroeste 0 -- -- 70
2020-09-19 10:00:00 19.8 3 Noroeste 10 Sur 0 -- -- 72
2020-09-19 09:00:00 16.1 9 Sur 13 Sudoeste 0 -- -- 74
2020-09-19 08:00:00 15.2 11 Sur 15 Sur 0 -- -- 78
2020-09-19 07:00:00 15.2 13 Sur 15 Sur 0 -- -- 74
2020-09-19 06:00:00 14.6 9 Sudeste 14 Sur 0 -- -- 69
2020-09-19 05:00:00 14.2 9 Sudeste 15 Sur 0 -- -- 64
2020-09-19 04:00:00 14.8 5 Sudeste 15 Sudeste 0 -- -- 74
2020-09-19 03:00:00 14.9 10 Sur 15 Sudeste 0 -- -- 68
2020-09-19 02:00:00 14.9 10 Sur 14 Sur 0 -- -- 63
2020-09-19 01:00:00 15.7 10 Sudeste 14 Sur 0 -- -- 59
2020-09-19 00:00:00 15.8 7 Sur 14 Sudeste 0 -- -- 70
2020-09-18 23:00:00 15.2 7 Sur 18 Sudeste 0 -- -- 71
2020-09-18 22:00:00 16 12 Sur 14 Sur 0 -- -- 75
2020-09-18 21:00:00 18.1 5 Sudeste 13 Norte 0 -- -- 84
2020-09-18 20:00:00 19.1 7 Nordeste 15 Norte 0 -- -- 84
2020-09-18 19:00:00 20.8 8 Norte 17 Norte 0 -- -- 74
2020-09-18 18:00:00 21.2 8 Norte 18 Noroeste 0 -- -- 72
2020-09-18 17:00:00 20.9 8 Norte 16 Nordeste 0 -- -- 76
2020-09-18 16:00:00 19.7 8 Norte 17 Norte 0 -- -- 85
2020-09-18 15:00:00 20 7 Nordeste 21 Noroeste 0 -- -- 83
2020-09-18 14:00:00 20.2 9 Norte 16 Nordeste 0 -- -- 81
2020-09-18 13:00:00 19.8 10 Norte 18 Nordeste 0 -- -- 82
2020-09-18 12:00:00 20.4 9 Norte 18 Norte 0 -- -- 79
2020-09-18 11:00:00 20.8 10 Nordeste 16 Nordeste 0 -- -- 72
2020-09-18 10:00:00 19.9 3 Este 10 Sudeste 0 -- -- 78
2020-09-18 09:00:00 15.8 9 Sudeste 15 Sudeste 0 -- -- 85
2020-09-18 08:00:00 15.1 14 Sudeste 17 Sudeste 0 -- -- 89
2020-09-18 07:00:00 14.2 11 Sudeste 15 Sur 0 -- -- 87
2020-09-18 06:00:00 14.7 13 Sudeste 18 Sudeste 0 -- -- 85
2020-09-18 05:00:00 15.1 14 Sudeste 16 Sur 0 -- -- 90
2020-09-18 04:00:00 15.3 11 Sudeste 14 Sudeste 0 -- -- 93
2020-09-18 03:00:00 16.5 4 Sur 6 Sudoeste 0 -- -- 97
2020-09-18 02:00:00 17.6 0 Calma 6 Sudoeste 0.2 -- -- 98
2020-09-18 01:00:00 17.5 0 Calma 4 Norte 0 -- -- 98
2020-09-18 00:00:00 17.6 0 Calma 5 Norte 0 -- -- 98
2020-09-17 23:00:00 17.8 0 Calma 5 Noroeste 0 -- -- 98
2020-09-17 22:00:00 17.8 3 Noroeste 6 Norte 0.2 -- -- 98
2020-09-17 21:00:00 18 0 Calma 5 Noroeste 0 -- -- 97
2020-09-17 20:00:00 18.4 4 Noroeste 7 Norte 0 -- -- 95
2020-09-17 19:00:00 19 5 Norte 12 Norte 0 -- -- 93
2020-09-17 18:00:00 20.4 6 Norte 13 Noroeste 0 -- -- 90
2020-09-17 17:00:00 19.5 4 Noroeste 12 Nordeste 0 -- -- 94
2020-09-17 16:00:00 19.5 4 Noroeste 13 Nordeste 0 -- -- 96
2020-09-17 15:00:00 19.5 4 Norte 10 Norte 0 -- -- 96
2020-09-17 14:00:00 19.8 6 Norte 15 Norte 0 -- -- 93
2020-09-17 13:00:00 22.6 8 Norte 15 Noroeste 0 -- -- 82
2020-09-17 12:00:00 20.3 2 Norte 10 Norte 0 -- -- 92
2020-09-17 11:00:00 19.8 6 Norte 10 Norte 0 -- -- 95
2020-09-17 10:00:00 18.9 5 Este 10 Nordeste 0 -- -- 97
2020-09-17 09:00:00 19.2 2 Norte 20 Norte 0 -- -- 97
2020-09-17 08:00:00 19.1 3 Sur 17 Norte 0 -- -- 97
2020-09-17 07:00:00 19.1 5 Este 24 Noroeste 0 -- -- 97
2020-09-17 06:00:00 19.2 4 Norte 10 Norte 0 -- -- 97
2020-09-17 05:00:00 19.2 3 Noroeste 8 Noroeste 0 -- -- 97
2020-09-17 04:00:00 19.4 3 Oeste 9 Noroeste 0 -- -- 97
2020-09-17 03:00:00 19.4 4 Sudeste 10 Norte 0 -- -- 98
2020-09-17 02:00:00 19.7 3 Este 24 Sur 0 -- -- 96
2020-09-17 01:00:00 20.2 4 Oeste 13 Noroeste 0 -- -- 97
2020-09-17 00:00:00 20.4 2 Sur 19 Oeste 0 -- -- 96
2020-09-16 23:00:00 20.6 6 Oeste 15 Norte 0 -- -- 96
2020-09-16 22:00:00 21.5 6 Oeste 17 Noroeste 0 -- -- 88
2020-09-16 21:00:00 25.7 8 Sur 13 Sur 0 -- -- 44
2020-09-16 20:00:00 25.8 3 Sur 8 Oeste 0 -- -- 48
2020-09-16 19:00:00 28.2 4 Oeste 10 Sur 0 -- -- 38
2020-09-16 18:00:00 28.4 3 Oeste 8 Noroeste 0 -- -- 39
2020-09-16 17:00:00 28.3 4 Norte 12 Norte 0 -- -- 39
2020-09-16 16:00:00 28.3 6 Norte 14 Noroeste 0 -- -- 40
2020-09-16 15:00:00 28.5 9 Norte 15 Oeste 0 -- -- 40
2020-09-16 14:00:00 28.8 6 Noroeste 15 Norte 0 -- -- 39
2020-09-16 13:00:00 29.3 6 Sudeste 15 Noroeste 0 -- -- 39
2020-09-16 12:00:00 27.9 12 Nordeste 22 Sudeste 0 -- -- 40
2020-09-16 11:00:00 27.3 6 Norte 21 Este 0 -- -- 41
2020-09-16 10:00:00 25.7 14 Sudeste 26 Sudeste 0 -- -- 44
2020-09-16 09:00:00 24.9 7 Sur 18 Sudeste 0 -- -- 44
2020-09-16 08:00:00 24.8 8 Sur 26 Sudeste 0 -- -- 42
2020-09-16 07:00:00 24.2 10 Sur 18 Sur 0 -- -- 41
2020-09-16 06:00:00 24.5 9 Sur 20 Sudeste 0 -- -- 42
2020-09-16 05:00:00 24.6 7 Sudoeste 17 Sur 0 -- -- 40
2020-09-16 04:00:00 24.3 7 Sudeste 19 Este 0 -- -- 40
2020-09-16 03:00:00 24.8 10 Sur 18 Sur 0 -- -- 38
2020-09-16 02:00:00 25.4 8 Sur 23 Oeste 0 -- -- 35
2020-09-16 01:00:00 25.6 10 Sur 18 Sur 0 -- -- 33
2020-09-16 00:00:00 25.4 9 Sudeste 19 Sudeste 0 -- -- 35
2020-09-15 23:00:00 25.4 10 Sudeste 16 Sur 0 -- -- 33
2020-09-15 22:00:00 24.8 11 Sur 15 Sudeste 0 -- -- 37
2020-09-15 21:00:00 25.4 8 Sur 18 Sur 0 -- -- 33
2020-09-15 20:00:00 24.5 14 Sur 21 Sur 0 -- -- 42
2020-09-15 19:00:00 21.4 5 Oeste 13 Norte 0 -- -- 85
2020-09-15 18:00:00 25.9 5 Noroeste 12 Norte 0 -- -- 66
2020-09-15 17:00:00 25.1 7 Noroeste 12 Norte 0 -- -- 69
2020-09-15 16:00:00 29 4 Norte 11 Norte 0 -- -- 35
2020-09-15 15:00:00 25.5 6 Noroeste 14 Noroeste 0 -- -- 69
2020-09-15 14:00:00 24.6 9 Noroeste 14 Noroeste 0 -- -- 70
2020-09-15 13:00:00 23.8 5 Norte 19 Noroeste 0 -- -- 72
2020-09-15 12:00:00 24.8 6 Noroeste 13 Sur 0 -- -- 67
2020-09-15 11:00:00 24.4 5 Noroeste 17 Sur 0 -- -- 61
2020-09-15 10:00:00 22.6 4 Nordeste 12 Sur 0 -- -- 61
2020-09-15 09:00:00 21.4 0 Calma 15 Sudeste 0 -- -- 55
2020-09-15 08:00:00 19.1 0 Calma 7 Sudeste 0 -- -- 68
2020-09-15 07:00:00 18.8 3 Este 15 Sur 0 -- -- 71
2020-09-15 06:00:00 18.2 3 Sur 13 Sur 0 -- -- 94
2020-09-15 05:00:00 18.8 2 Oeste 14 Sudoeste 0 -- -- 93
2020-09-15 04:00:00 19 9 Oeste 18 Noroeste 0 -- -- 91
2020-09-15 03:00:00 20.1 7 Sudeste 14 Sur 0 -- -- 68
2020-09-15 02:00:00 21 8 Noroeste 17 Noroeste 0 -- -- 75
2020-09-15 01:00:00 19.8 5 Oeste 13 Sur 0 -- -- 78
2020-09-15 00:00:00 19.6 7 Noroeste 14 Noroeste 0 -- -- 89
2020-09-14 23:00:00 19.7 8 Sudoeste 31 Noroeste 0 -- -- 87
2020-09-14 22:00:00 19.8 3 Sur 15 Noroeste 0 -- -- 86
2020-09-14 21:00:00 20.3 2 Este 6 Sudeste 0 -- -- 82
2020-09-14 20:00:00 20.2 0 Calma 9 Oeste 0 -- -- 87
2020-09-14 19:00:00 21.4 3 Oeste 9 Noroeste 0 -- -- 83
2020-09-14 18:00:00 22.1 4 Noroeste 16 Noroeste 0 -- -- 79
2020-09-14 17:00:00 23.4 10 Norte 24 Norte 0 -- -- 72
2020-09-14 16:00:00 23.5 10 Norte 20 Norte 0 -- -- 71
2020-09-14 15:00:00 24 8 Norte 18 Norte 0 -- -- 70
2020-09-14 14:00:00 24.3 12 Noroeste 20 Norte 0 -- -- 71
2020-09-14 13:00:00 23.5 9 Norte 15 Norte 0 -- -- 72
2020-09-14 12:00:00 23.1 7 Norte 14 Noroeste 0 -- -- 69
2020-09-14 11:00:00 22.7 5 Norte 8 Norte 0 -- -- 55
2020-09-14 10:00:00 21.9 2 Noroeste 12 Sur 0 -- -- 54
2020-09-14 09:00:00 17.3 8 Sur 12 Sur 0 -- -- 65
2020-09-14 08:00:00 16.3 10 Sur 20 Sur 0 -- -- 67
2020-09-14 07:00:00 16.4 13 Sudeste 16 Sudeste 0 -- -- 68
2020-09-14 06:00:00 15.9 10 Sudeste 19 Sudeste 0 -- -- 70
2020-09-14 05:00:00 16.1 12 Sudeste 15 Sudeste 0 -- -- 72
2020-09-14 04:00:00 16.1 10 Sudeste 13 Sudeste 0 -- -- 78
2020-09-14 03:00:00 15.8 9 Sudeste 12 Sudeste 0 -- -- 81
2020-09-14 02:00:00 15.9 8 Sudeste 11 Sudeste 0 -- -- 86
2020-09-14 01:00:00 16.1 8 Sur 13 Sur 0 -- -- 90
2020-09-14 00:00:00 16.7 7 Sur 10 Sudeste 0 -- -- 92
2020-09-13 23:00:00 17.8 5 Sur 10 Sur 0 -- -- 90
2020-09-13 22:00:00 18.8 4 Sur 7 Sur 0 -- -- 90
2020-09-13 21:00:00 19.1 3 Nordeste 8 Norte 0 -- -- 93
2020-09-13 20:00:00 20 4 Noroeste 10 Norte 0 -- -- 90
2020-09-13 19:00:00 20.3 6 Norte 13 Norte 0 -- -- 88
2020-09-13 18:00:00 21.5 8 Norte 16 Norte 0 -- -- 83
2020-09-13 17:00:00 21.6 5 Norte 15 Noroeste 0 -- -- 78
2020-09-13 16:00:00 21.2 8 Norte 18 Norte 0 -- -- 81
2020-09-13 15:00:00 21.5 9 Norte 15 Norte 0 -- -- 80
2020-09-13 14:00:00 21.7 6 Norte 13 Norte 0 -- -- 79
2020-09-13 13:00:00 21.3 6 Noroeste 14 Noroeste 0 -- -- 76
2020-09-13 12:00:00 21.9 5 Noroeste 14 Norte 0 -- -- 73
2020-09-13 11:00:00 21.7 3 Norte 11 Noroeste 0 -- -- 74
2020-09-13 10:00:00 19.1 2 Sudoeste 8 Sur 0 -- -- 84
2020-09-13 09:00:00 16.9 8 Sur 12 Sur 0 -- -- 89
2020-09-13 08:00:00 16.1 9 Sur 12 Sur 0 -- -- 90
2020-09-13 07:00:00 16.3 10 Sur 12 Sudeste 0 -- -- 91
2020-09-13 06:00:00 16.8 7 Sur 10 Sur 0 -- -- 91
2020-09-13 05:00:00 16.9 5 Sur 13 Sur 0 -- -- 90
2020-09-13 04:00:00 17.2 7 Sur 9 Sur 0 -- -- 93
2020-09-13 03:00:00 17.4 6 Sur 9 Sur 0 -- -- 93
2020-09-13 02:00:00 17.2 4 Sudoeste 9 Sur 0 -- -- 93
2020-09-13 01:00:00 18.2 4 Sudoeste 8 Oeste 0 -- -- 95
2020-09-13 00:00:00 18.6 2 Sudoeste 10 Sudeste 0.2 -- -- 93
2020-09-12 23:00:00 19.3 3 Noroeste 12 Noroeste 0 -- -- 90
2020-09-12 22:00:00 19.3 4 Noroeste 15 Sudeste 0 -- -- 90
2020-09-12 21:00:00 18.9 3 Sudoeste 9 Noroeste 0 -- -- 91
2020-09-12 20:00:00 19.8 4 Noroeste 13 Norte 0 -- -- 86
2020-09-12 19:00:00 19.9 8 Noroeste 12 Norte 0 -- -- 88
2020-09-12 18:00:00 19.5 4 Norte 14 Norte 0 -- -- 87
2020-09-12 17:00:00 20 7 Norte 16 Noroeste 0 -- -- 84
2020-09-12 16:00:00 21.2 11 Noroeste 21 Norte 0 -- -- 78
2020-09-12 15:00:00 23.7 8 Norte 17 Norte 0 -- -- 71
2020-09-12 14:00:00 23.6 8 Norte 16 Norte 0 -- -- 71
2020-09-12 13:00:00 22.3 9 Norte 18 Nordeste 0 -- -- 75
2020-09-12 12:00:00 20.7 7 Norte 13 Norte 0 -- -- 81
2020-09-12 11:00:00 20.2 6 Norte 13 Noroeste 0 -- -- 81
2020-09-12 10:00:00 19.7 5 Noroeste 8 Norte 0 -- -- 80
2020-09-12 09:00:00 17.9 4 Sur 8 Sur 0 -- -- 85
2020-09-12 08:00:00 16.3 5 Sur 12 Sudeste 0 -- -- 86
2020-09-12 07:00:00 16.3 8 Sudeste 10 Sudeste 0 -- -- 84
2020-09-12 06:00:00 16.6 7 Sudeste 11 Sur 0 -- -- 86
2020-09-12 05:00:00 16.8 4 Sudeste 11 Sudeste 0 -- -- 87
2020-09-12 04:00:00 17.2 8 Sudeste 12 Sudeste 0 -- -- 87
2020-09-12 03:00:00 18.5 5 Este 8 Este 0 -- -- 88
2020-09-12 02:00:00 18.3 4 Este 8 Este 0 -- -- 92
2020-09-12 01:00:00 18.4 4 Nordeste 8 Nordeste 0 -- -- 93
2020-09-12 00:00:00 18.8 2 Este 8 Este 0 -- -- 89
2020-09-11 23:00:00 18.8 2 Este 5 Nordeste 0 -- -- 89
2020-09-11 22:00:00 18.9 5 Norte 8 Norte 0 -- -- 90
2020-09-11 21:00:00 18.8 4 Norte 10 Nordeste 0 -- -- 90
2020-09-11 20:00:00 19.4 2 Este 14 Nordeste 0 -- -- 88
2020-09-11 19:00:00 19.6 8 Norte 14 Noroeste 0 -- -- 87
2020-09-11 18:00:00 20.5 8 Nordeste 17 Nordeste 0 -- -- 81
2020-09-11 17:00:00 22.4 9 Norte 17 Norte 0 -- -- 74
2020-09-11 16:00:00 22.6 11 Norte 19 Norte 0 -- -- 74
2020-09-11 15:00:00 23 8 Norte 19 Norte 0 -- -- 74
2020-09-11 14:00:00 23.8 9 Noroeste 13 Noroeste 0 -- -- 68
2020-09-11 13:00:00 22.8 10 Norte 17 Norte 0 -- -- 70
2020-09-11 12:00:00 21.7 8 Norte 14 Norte 0 -- -- 75
2020-09-11 11:00:00 21.5 6 Norte 12 Norte 0 -- -- 76
2020-09-11 10:00:00 19.9 3 Noroeste 7 Noroeste 0 -- -- 77
2020-09-11 09:00:00 19.2 0 Calma 10 Sur 0 -- -- 65
2020-09-11 08:00:00 15.9 8 Sur 12 Sur 0 -- -- 78
2020-09-11 07:00:00 15.4 5 Sudeste 9 Sudeste 0 -- -- 83
2020-09-11 06:00:00 15.3 8 Sudeste 12 Sudeste 0 -- -- 79
2020-09-11 05:00:00 16 6 Sur 12 Sudeste 0 -- -- 86
2020-09-11 04:00:00 16 8 Sur 9 Sur 0 -- -- 88
2020-09-11 03:00:00 16.2 6 Sur 9 Sur 0 -- -- 88
2020-09-11 02:00:00 17.5 5 Sudoeste 9 Sudoeste 0 -- -- 89
2020-09-11 01:00:00 17.3 0 Calma 5 Sudeste 0 -- -- 74
2020-09-11 00:00:00 17 2 Sudoeste 4 Sur 0 -- -- 72
2020-09-10 23:00:00 17.5 0 Calma 10 Sur 0 -- -- 81
2020-09-10 22:00:00 18.5 4 Sudeste 11 Sur 0 -- -- 62
2020-09-10 21:00:00 18.4 3 Sudoeste 5 Nordeste 0 -- -- 89
2020-09-10 20:00:00 19.6 3 Nordeste 13 Nordeste 0 -- -- 87
2020-09-10 19:00:00 22 8 Norte 16 Norte 0 -- -- 79
2020-09-10 18:00:00 23.1 9 Norte 16 Norte 0 -- -- 73
2020-09-10 17:00:00 25.5 8 Norte 15 Noroeste 0 -- -- 66
2020-09-10 16:00:00 26.2 8 Noroeste 15 Noroeste 0 -- -- 64
2020-09-10 15:00:00 25.2 7 Noroeste 14 Noroeste 0 -- -- 67
2020-09-10 14:00:00 25.2 8 Noroeste 14 Norte 0 -- -- 67
2020-09-10 13:00:00 23.1 8 Norte 17 Nordeste 0 -- -- 74
2020-09-10 12:00:00 22.9 7 Norte 13 Norte 0 -- -- 75
2020-09-10 11:00:00 23.2 5 Norte 9 Nordeste 0 -- -- 72
2020-09-10 10:00:00 21.5 4 Norte 9 Oeste 0 -- -- 72
2020-09-10 09:00:00 19.3 4 Sur 7 Sur 0 -- -- 45
2020-09-10 08:00:00 17.4 5 Sudoeste 10 Sudoeste 0 -- -- 61
2020-09-10 07:00:00 17.2 6 Sudoeste 9 Sur 0 -- -- 74
2020-09-10 06:00:00 16.5 4 Sur 8 Este 0 -- -- 72
2020-09-10 05:00:00 17.1 3 Sur 10 Sur 0 -- -- 63
2020-09-10 04:00:00 20 4 Sudeste 9 Sur 0 -- -- 55
2020-09-10 03:00:00 21 5 Sudeste 12 Sur 0 -- -- 36
2020-09-10 02:00:00 21.3 5 Sur 9 Sudeste 0 -- -- 37
2020-09-10 01:00:00 21.3 4 Sur 10 Sur 0 -- -- 37
2020-09-10 00:00:00 21.3 4 Sur 12 Sudeste 0 -- -- 44
2020-09-09 23:00:00 20.4 2 Nordeste 6 Sudeste 0 -- -- 71
2020-09-09 22:00:00 22 2 Sur 9 Sur 0 -- -- 48
2020-09-09 21:00:00 23.3 5 Sudeste 10 Sudeste 0 -- -- 54
2020-09-09 20:00:00 25.6 2 Noroeste 8 Norte 0 -- -- 70
2020-09-09 19:00:00 27 5 Norte 10 Noroeste 0 -- -- 66
2020-09-09 18:00:00 27.2 4 Noroeste 13 Noroeste 0 -- -- 66
2020-09-09 17:00:00 26.8 8 Noroeste 15 Noroeste 0 -- -- 67
2020-09-09 16:00:00 27.4 7 Noroeste 14 Noroeste 0 -- -- 62
2020-09-09 15:00:00 27.3 8 Norte 13 Noroeste 0 -- -- 65
2020-09-09 14:00:00 26.7 6 Noroeste 18 Noroeste 0 -- -- 69
2020-09-09 13:00:00 25.7 6 Noroeste 12 Noroeste 0 -- -- 73
2020-09-09 12:00:00 26.2 7 Noroeste 11 Noroeste 0 -- -- 66
2020-09-09 11:00:00 29 4 Noroeste 8 Noroeste 0 -- -- 32
2020-09-09 10:00:00 28.3 2 Este 8 Sudeste 0 -- -- 25
2020-09-09 09:00:00 23.8 6 Sudeste 12 Sur 0 -- -- 27
2020-09-09 08:00:00 21.9 7 Sur 12 Sudeste 0 -- -- 29
2020-09-09 07:00:00 22.6 4 Sudeste 12 Sur 0 -- -- 27
2020-09-09 06:00:00 23 5 Sudeste 10 Sudeste 0 -- -- 27
2020-09-09 05:00:00 23.1 7 Sur 13 Sur 0 -- -- 25
2020-09-09 04:00:00 23.3 6 Sudeste 12 Sur 0 -- -- 27
2020-09-09 03:00:00 23.2 8 Sudeste 14 Sudeste 0 -- -- 29
2020-09-09 02:00:00 22.9 8 Sur 12 Sur 0 -- -- 35
2020-09-09 01:00:00 22.9 6 Sur 10 Sur 0 -- -- 36
2020-09-09 00:00:00 23.7 6 Sur 10 Sur 0 -- -- 34
2020-09-08 23:00:00 24 6 Sudoeste 9 Sudeste 0 -- -- 38
2020-09-08 22:00:00 24.3 4 Sudeste 9 Sudeste 0 -- -- 39
2020-09-08 21:00:00 24.5 4 Sur 8 Sur 0 -- -- 62
2020-09-08 20:00:00 28 3 Sudeste 8 Norte 0 -- -- 62
2020-09-08 19:00:00 27.4 4 Noroeste 11 Noroeste 0 -- -- 69
2020-09-08 18:00:00 28.7 5 Noroeste 13 Noroeste 0 -- -- 63
2020-09-08 17:00:00 29.5 5 Noroeste 13 Noroeste 0 -- -- 59
2020-09-08 16:00:00 29.1 6 Noroeste 14 Noroeste 0 -- -- 62
2020-09-08 15:00:00 28.5 6 Norte 13 Noroeste 0 -- -- 63
2020-09-08 14:00:00 27.5 7 Noroeste 12 Noroeste 0 -- -- 69
2020-09-08 13:00:00 27 7 Noroeste 12 Noroeste 0 -- -- 71
2020-09-08 12:00:00 26.3 6 Norte 11 Norte 0 -- -- 72
2020-09-08 11:00:00 24.9 4 Noroeste 10 Noroeste 0 -- -- 74
2020-09-08 10:00:00 26.5 3 Norte 10 Sudeste 0 -- -- 46
2020-09-08 09:00:00 27.9 3 Norte 8 Nordeste 0 -- -- 29
2020-09-08 08:00:00 25.9 3 Oeste 8 Noroeste 0 -- -- 32
2020-09-08 07:00:00 28 3 Este 21 Este 0 -- -- 28
2020-09-08 06:00:00 25.4 3 Sur 12 Sudeste 0 -- -- 31
2020-09-08 05:00:00 27.6 9 Sudeste 26 Sudeste 0 -- -- 30
2020-09-08 04:00:00 28.2 14 Sudeste 21 Sudeste 0 -- -- 27
2020-09-08 03:00:00 27.9 5 Sudeste 17 Sudeste 0 -- -- 32
2020-09-08 02:00:00 28.3 12 Sudeste 17 Sudeste 0 -- -- 35
2020-09-08 01:00:00 27.5 7 Sudeste 19 Sur 0 -- -- 39
2020-09-08 00:00:00 27.5 13 Sur 18 Sur 0 -- -- 40
2020-09-07 23:00:00 27 12 Sur 19 Sur 0 -- -- 42
2020-09-07 22:00:00 28.2 14 Sur 19 Sudeste 0 -- -- 39
2020-09-07 21:00:00 28.1 11 Sudeste 16 Sudeste 0 -- -- 39
2020-09-07 20:00:00 28.5 7 Sudeste 9 Sudeste 0 -- -- 43
2020-09-07 19:00:00 29.7 3 Oeste 6 Noroeste 0 -- -- 51
2020-09-07 18:00:00 30.1 2 Noroeste 16 Norte 0 -- -- 46
2020-09-07 17:00:00 31 6 Noroeste 14 Norte 0 -- -- 49
2020-09-07 16:00:00 32.4 10 Norte 16 Nordeste 0 -- -- 45
2020-09-07 15:00:00 29.7 3 Noroeste 10 Noroeste 0 -- -- 48
2020-09-07 14:00:00 29.6 4 Noroeste 14 Noroeste 0 -- -- 58
2020-09-07 13:00:00 28.3 5 Norte 12 Noroeste 0 -- -- 52
2020-09-07 12:00:00 24 3 Oeste 12 Noroeste 0 -- -- 76
2020-09-07 11:00:00 27 5 Sudoeste 11 Norte 0 -- -- 63
2020-09-07 10:00:00 22.7 4 Nordeste 14 Norte 0 -- -- 73
2020-09-07 09:00:00 19.4 5 Noroeste 10 Noroeste 0 -- -- 90
2020-09-07 08:00:00 20.3 2 Oeste 12 Sudeste 0 -- -- 67
2020-09-07 07:00:00 19.8 2 Sur 9 Sur 0 -- -- 72
2020-09-07 06:00:00 20 6 Sur 15 Sur 0 -- -- 77
2020-09-07 05:00:00 18.9 3 Sur 8 Sur 0 -- -- 77
2020-09-07 04:00:00 19.1 0 Calma 10 Sur 0 -- -- 75
2020-09-07 03:00:00 18.3 6 Sur 9 Sur 0 -- -- 85
2020-09-07 02:00:00 18.6 4 Oeste 8 Oeste 0 -- -- 89
2020-09-07 01:00:00 19 2 Sur 6 Sur 0 -- -- 70
2020-09-07 00:00:00 19.2 2 Sudoeste 5 Sudoeste 0 -- -- 75
2020-09-06 23:00:00 18.8 3 Nordeste 6 Sur 0 -- -- 88
2020-09-06 22:00:00 19 0 Calma 5 Norte 0 -- -- 93
2020-09-06 21:00:00 19.2 3 Noroeste 6 Norte 0 -- -- 92
2020-09-06 20:00:00 20.5 3 Noroeste 14 Norte 0 -- -- 85
2020-09-06 19:00:00 22 8 Norte 18 Norte 0 -- -- 79
2020-09-06 18:00:00 22.1 8 Norte 17 Norte 0 -- -- 77
2020-09-06 17:00:00 23.2 10 Norte 19 Noroeste 0 -- -- 74
2020-09-06 16:00:00 23.7 11 Norte 19 Noroeste 0 -- -- 69
2020-09-06 15:00:00 23.7 9 Norte 18 Norte 0 -- -- 72
2020-09-06 14:00:00 23.5 9 Norte 17 Norte 0 -- -- 73
2020-09-06 13:00:00 22.5 9 Norte 15 Noroeste 0 -- -- 73
2020-09-06 12:00:00 21.8 7 Norte 14 Noroeste 0 -- -- 75
2020-09-06 11:00:00 21.5 8 Noroeste 13 Noroeste 0 -- -- 70
2020-09-06 10:00:00 21.1 4 Noroeste 15 Sur 0 -- -- 61
2020-09-06 09:00:00 16.1 10 Sudeste 15 Sur 0 -- -- 68
2020-09-06 08:00:00 14.3 11 Sudeste 14 Sur 0 -- -- 73
2020-09-06 07:00:00 14.2 11 Sudeste 17 Sudeste 0 -- -- 75
2020-09-06 06:00:00 14.1 12 Sur 16 Sur 0 -- -- 80
2020-09-06 05:00:00 14.4 10 Sudeste 14 Sudeste 0 -- -- 81
2020-09-06 04:00:00 14.4 7 Sur 11 Sur 0 -- -- 81
2020-09-06 03:00:00 14.8 6 Sur 13 Sudeste 0 -- -- 74
2020-09-06 02:00:00 15.1 7 Sur 13 Sur 0 -- -- 73
2020-09-06 01:00:00 16.3 10 Sur 12 Sur 0 -- -- 86
2020-09-06 00:00:00 16.9 9 Sur 13 Sur 0 -- -- 83
2020-09-05 23:00:00 18.6 2 Sudoeste 9 Sur 0 -- -- 89
2020-09-05 22:00:00 18.4 3 Nordeste 9 Noroeste 0 -- -- 93
2020-09-05 21:00:00 18.8 4 Norte 9 Norte 0 -- -- 92
2020-09-05 20:00:00 20.1 4 Norte 11 Norte 0 -- -- 86
2020-09-05 19:00:00 20.7 5 Noroeste 14 Noroeste 0 -- -- 82
2020-09-05 18:00:00 21.4 8 Norte 16 Norte 0 -- -- 77
2020-09-05 17:00:00 22.4 10 Noroeste 17 Noroeste 0 -- -- 75
2020-09-05 16:00:00 22.6 9 Norte 19 Norte 0 -- -- 72
2020-09-05 15:00:00 23 9 Norte 18 Norte 0 -- -- 71
2020-09-05 14:00:00 22.4 9 Norte 18 Noroeste 0 -- -- 72
2020-09-05 13:00:00 22.3 9 Norte 15 Norte 0 -- -- 72
2020-09-05 12:00:00 22 6 Norte 13 Noroeste 0 -- -- 75
2020-09-05 11:00:00 18.9 2 Nordeste 7 Nordeste 0 -- -- 91
2020-09-05 10:00:00 18.5 4 Norte 7 Norte 0 -- -- 92
2020-09-05 09:00:00 18.1 3 Sur 9 Sudeste 0 -- -- 92
2020-09-05 08:00:00 17.7 4 Sur 10 Sur 0 -- -- 92
2020-09-05 07:00:00 17.7 5 Sudeste 9 Sudeste 0 -- -- 92
2020-09-05 06:00:00 17.8 2 Sur 6 Norte 0 -- -- 92
2020-09-05 05:00:00 17.8 2 Sudeste 11 Sudeste 0 -- -- 91
2020-09-05 04:00:00 17.8 4 Este 7 Este 0 -- -- 93
2020-09-05 03:00:00 17.5 5 Sur 8 Sur 0 -- -- 94
2020-09-05 02:00:00 17.5 4 Sudeste 6 Sur 0 -- -- 94
2020-09-05 01:00:00 17.8 0 Calma 7 Sudeste 0 -- -- 91
2020-09-05 00:00:00 16.3 3 Sudeste 5 Sudeste 0 -- -- 80
2020-09-04 23:00:00 16.9 3 Este 4 Este 0 -- -- 89
2020-09-04 22:00:00 17.7 0 Calma 6 Sudoeste 0 -- -- 88
2020-09-04 21:00:00 19.1 3 Noroeste 6 Noroeste 0 -- -- 90
2020-09-04 20:00:00 21.2 3 Norte 9 Norte 0 -- -- 81
2020-09-04 19:00:00 22.9 6 Norte 11 Norte 0 -- -- 74
2020-09-04 18:00:00 24.2 5 Norte 13 Noroeste 0 -- -- 70
2020-09-04 17:00:00 24.8 5 Norte 13 Noroeste 0 -- -- 68
2020-09-04 16:00:00 24.3 8 Noroeste 14 Noroeste 0 -- -- 69
2020-09-04 15:00:00 24.2 9 Noroeste 17 Noroeste 0 -- -- 66
2020-09-04 14:00:00 23.6 8 Norte 14 Noroeste 0 -- -- 69
2020-09-04 13:00:00 22.4 7 Norte 14 Norte 0 -- -- 71
2020-09-04 12:00:00 22 8 Norte 15 Norte 0 -- -- 73
2020-09-04 11:00:00 20.3 7 Norte 12 Nordeste 0 -- -- 81
2020-09-04 10:00:00 19.5 3 Oeste 6 Sudoeste 0 -- -- 79
2020-09-04 09:00:00 16.4 5 Sur 9 Sur 0 -- -- 75
2020-09-04 08:00:00 14.2 7 Sur 9 Sur 0 -- -- 68
2020-09-04 07:00:00 13.8 4 Sur 8 Sur 0 -- -- 62
2020-09-04 06:00:00 14.6 4 Sudoeste 6 Sur 0 -- -- 55
2020-09-04 05:00:00 14.9 2 Sudoeste 8 Sur 0 -- -- 59
2020-09-04 04:00:00 15.1 3 Sudeste 7 Sur 0 -- -- 48
2020-09-04 03:00:00 15.6 2 Sudoeste 8 Sur 0 -- -- 58
2020-09-04 02:00:00 14.7 3 Sur 11 Sur 0 -- -- 61
2020-09-04 01:00:00 15.1 4 Sudeste 8 Sur 0 -- -- 65
2020-09-04 00:00:00 15.3 4 Sudeste 9 Sudeste 0 -- -- 71
2020-09-03 23:00:00 15.6 4 Sur 8 Sur 0 -- -- 81
2020-09-03 22:00:00 16.6 3 Sudeste 8 Sur 0 -- -- 89
2020-09-03 21:00:00 19 3 Noroeste 7 Norte 0 -- -- 90
2020-09-03 20:00:00 21.3 4 Norte 9 Noroeste 0 -- -- 80
2020-09-03 19:00:00 22.2 4 Norte 13 Noroeste 0 -- -- 78
2020-09-03 18:00:00 21.9 9 Norte 17 Norte 0 -- -- 78
2020-09-03 17:00:00 23.2 9 Norte 18 Noroeste 0 -- -- 74
2020-09-03 16:00:00 23.2 10 Norte 22 Norte 0 -- -- 73
2020-09-03 15:00:00 23.9 9 Norte 18 Norte 0 -- -- 69
2020-09-03 14:00:00 24.3 9 Norte 15 Norte 0 -- -- 68
2020-09-03 13:00:00 23.9 8 Noroeste 14 Norte 0 -- -- 69
2020-09-03 12:00:00 22.6 7 Norte 13 Oeste 0 -- -- 71
2020-09-03 11:00:00 21.1 5 Norte 9 Noroeste 0 -- -- 66
2020-09-03 10:00:00 20.7 3 Norte 8 Sur 0 -- -- 60
2020-09-03 09:00:00 16 5 Sur 8 Sur 0 -- -- 60
2020-09-03 08:00:00 14.5 5 Sur 10 Sur 0 -- -- 58
2020-09-03 07:00:00 14.6 6 Sur 8 Sur 0 -- -- 54
2020-09-03 06:00:00 15.1 4 Sudoeste 12 Sudeste 0 -- -- 61
2020-09-03 05:00:00 15.2 4 Sudeste 8 Sudeste 0 -- -- 54
2020-09-03 04:00:00 16 6 Sur 13 Sur 0 -- -- 50
2020-09-03 03:00:00 15.7 3 Sudeste 9 Sur 0 -- -- 59
2020-09-03 02:00:00 15.8 4 Sudoeste 12 Sudeste 0 -- -- 62
2020-09-03 01:00:00 15.5 3 Sudeste 8 Sudeste 0 -- -- 61
2020-09-03 00:00:00 15.6 4 Sur 9 Sur 0 -- -- 62
2020-09-02 23:00:00 15.7 4 Sur 10 Sudeste 0 -- -- 71
2020-09-02 22:00:00 17.3 7 Sur 10 Sur 0 -- -- 74
2020-09-02 21:00:00 19.4 3 Norte 8 Oeste 0 -- -- 93
2020-09-02 20:00:00 20.1 5 Noroeste 9 Norte 0 -- -- 90
2020-09-02 19:00:00 20.6 4 Noroeste 13 Norte 0 -- -- 90
2020-09-02 18:00:00 20.9 8 Norte 17 Norte 0 -- -- 86
2020-09-02 17:00:00 21.6 9 Norte 21 Nordeste 0 -- -- 84
2020-09-02 16:00:00 23 11 Norte 21 Norte 0 -- -- 78
2020-09-02 15:00:00 23 10 Norte 21 Norte 0 -- -- 78
2020-09-02 14:00:00 22.2 12 Norte 21 Norte 0 -- -- 79
2020-09-02 13:00:00 21.6 11 Norte 18 Norte 0 -- -- 81
2020-09-02 12:00:00 20.6 9 Norte 15 Norte 0 -- -- 85
2020-09-02 11:00:00 20.4 6 Norte 12 Norte 0 -- -- 84
2020-09-02 10:00:00 19.9 3 Noroeste 11 Sur 0 -- -- 79
2020-09-02 09:00:00 16.9 8 Sudoeste 15 Sur 0 -- -- 81
2020-09-02 08:00:00 14 6 Sur 17 Sudoeste 0 -- -- 79
2020-09-02 07:00:00 15.1 12 Sur 14 Sudoeste 0 -- -- 88
2020-09-02 06:00:00 13.8 7 Sur 15 Sur 0 -- -- 83
2020-09-02 05:00:00 15.4 10 Sudoeste 13 Sur 0 -- -- 85
2020-09-02 04:00:00 14.4 7 Sur 12 Sudeste 0 -- -- 79
2020-09-02 03:00:00 14.4 7 Sur 14 Sudeste 0 -- -- 78
2020-09-02 02:00:00 14.7 8 Sur 14 Sur 0 -- -- 79
2020-09-02 01:00:00 15.6 8 Sur 16 Sudeste 0 -- -- 82
2020-09-02 00:00:00 16.1 13 Sudeste 19 Sudeste 0 -- -- 85
2020-09-01 23:00:00 17 14 Sur 16 Sur 0 -- -- 87
2020-09-01 22:00:00 19.4 3 Sudeste 9 Nordeste 0 -- -- 85
2020-09-01 21:00:00 19.6 4 Norte 13 Nordeste 0 -- -- 90
2020-09-01 20:00:00 20 5 Nordeste 13 Nordeste 0 -- -- 87
2020-09-01 19:00:00 21.2 6 Norte 13 Norte 0 -- -- 81
2020-09-01 18:00:00 21.9 7 Norte 13 Norte 0 -- -- 76
2020-09-01 17:00:00 21.3 8 Norte 18 Norte 0 -- -- 80
2020-09-01 16:00:00 20.7 7 Nordeste 14 Nordeste 0 -- -- 84
2020-09-01 15:00:00 20.2 8 Norte 17 Norte 0 -- -- 88
2020-09-01 14:00:00 20 10 Norte 18 Nordeste 0 -- -- 89
2020-09-01 13:00:00 20.3 11 Nordeste 19 Norte 0 -- -- 87
2020-09-01 12:00:00 20.4 11 Norte 20 Norte 0 -- -- 85
2020-09-01 11:00:00 20.3 3 Norte 12 Norte 0 -- -- 84
2020-09-01 10:00:00 19.8 3 Nordeste 9 Nordeste 0 -- -- 79
2020-09-01 09:00:00 18.7 0 Calma 14 Sur 0 -- -- 79
2020-09-01 08:00:00 17.9 4 Sudeste 12 Sur 0 -- -- 85
2020-09-01 07:00:00 17.8 5 Sur 12 Sudeste 0 -- -- 85
2020-09-01 06:00:00 17.8 9 Sur 14 Sur 0 -- -- 79
2020-09-01 05:00:00 17.9 2 Este 7 Sur 0 -- -- 85
2020-09-01 04:00:00 17.9 5 Sudeste 13 Sur 0 -- -- 84
2020-09-01 03:00:00 17.7 9 Sur 12 Sur 0 -- -- 83
2020-09-01 02:00:00 17.6 4 Sudeste 8 Sudeste 0 -- -- 85
2020-09-01 01:00:00 17.7 4 Nordeste 12 Sur 0 -- -- 85
2020-09-01 00:00:00 17.3 9 Sudeste 17 Sur 0 -- -- 83
2020-08-31 23:00:00 17.2 6 Sudeste 22 Sur 0 -- -- 79
2020-08-31 22:00:00 15.9 8 Sur 18 Sur 0 -- -- 82
2020-08-31 21:00:00 16 7 Sudeste 16 Nordeste 0 -- -- 88
2020-08-31 20:00:00 18.7 9 Nordeste 17 Norte 0 -- -- 80
2020-08-31 19:00:00 19.1 8 Norte 17 Norte 0 -- -- 78
2020-08-31 18:00:00 18.9 9 Nordeste 19 Nordeste 0 -- -- 77
2020-08-31 17:00:00 18.6 10 Norte 22 Nordeste 0 -- -- 81
2020-08-31 16:00:00 18.7 11 Nordeste 23 Norte 0 -- -- 82
2020-08-31 15:00:00 18.8 12 Norte 27 Norte 0 -- -- 81
2020-08-31 14:00:00 18.7 14 Norte 23 Norte 0 -- -- 78
2020-08-31 13:00:00 19.3 13 Norte 22 Nordeste 0 -- -- 76
2020-08-31 12:00:00 19.1 10 Nordeste 19 Nordeste 0 -- -- 81
2020-08-31 11:00:00 18.1 10 Nordeste 20 Nordeste 0 -- -- 82
2020-08-31 10:00:00 18.5 6 Nordeste 13 Nordeste 0 -- -- 77
2020-08-31 09:00:00 15.8 9 Sudeste 19 Sur 0 -- -- 78
2020-08-31 08:00:00 15 13 Sur 17 Sur 0 -- -- 83
2020-08-31 07:00:00 15.7 8 Sudeste 18 Sudeste 0 -- -- 87
2020-08-31 06:00:00 15 13 Sur 18 Sur 0 -- -- 85
2020-08-31 05:00:00 14.6 11 Sudeste 15 Sudeste 0 -- -- 88
2020-08-31 04:00:00 15.9 8 Sudeste 12 Sudeste 0 -- -- 86
2020-08-31 03:00:00 15.5 9 Sudeste 15 Sudeste 0 -- -- 87
2020-08-31 02:00:00 16.2 8 Sudeste 17 Este 0 -- -- 86
2020-08-31 01:00:00 16.5 8 Sur 14 Sur 0 -- -- 86
2020-08-31 00:00:00 16.2 7 Sudeste 10 Sudeste 0 -- -- 88
2020-08-30 23:00:00 16.7 6 Sur 13 Sudeste 0 -- -- 82
2020-08-30 22:00:00 16.4 9 Sur 12 Sur 0 -- -- 86
2020-08-30 21:00:00 17.4 7 Nordeste 17 Este 0 -- -- 84
2020-08-30 20:00:00 18 10 Nordeste 20 Nordeste 0 -- -- 78
2020-08-30 19:00:00 18.6 14 Nordeste 24 Nordeste 0 -- -- 76
2020-08-30 18:00:00 20.2 14 Norte 26 Norte 0 -- -- 76
2020-08-30 17:00:00 19.3 15 Norte 27 Nordeste 0 -- -- 80
2020-08-30 16:00:00 19.3 14 Norte 24 Nordeste 0 -- -- 80
2020-08-30 15:00:00 18.1 13 Nordeste 25 Nordeste 0.2 -- -- 88
2020-08-30 14:00:00 18 8 Norte 20 Nordeste 0.4 -- -- 85
2020-08-30 13:00:00 18.8 4 Norte 25 Norte 0 -- -- 78
2020-08-30 12:00:00 19 9 Norte 19 Norte 0 -- -- 81
2020-08-30 11:00:00 17.4 6 Nordeste 14 Este 0.2 -- -- 88
2020-08-30 10:00:00 16 12 Este 18 Este 2.8 -- -- 95
2020-08-30 09:00:00 16.1 5 Sudeste 19 Este 0.6 -- -- 91
2020-08-30 08:00:00 16.4 6 Sudoeste 13 Sudeste 0 -- -- 84
2020-08-30 07:00:00 16.4 2 Sur 10 Sudeste 0 -- -- 91
2020-08-30 06:00:00 16 5 Sudoeste 19 Nordeste 1.6 -- -- 92
2020-08-30 05:00:00 17 8 Sur 13 Sur 0 -- -- 77
2020-08-30 04:00:00 16.9 6 Este 15 Este 0 -- -- 86
2020-08-30 03:00:00 16.9 4 Este 21 Nordeste 0.4 -- -- 91
2020-08-30 02:00:00 17.6 7 Norte 13 Norte 0 -- -- 93
2020-08-30 01:00:00 17.6 7 Nordeste 16 Nordeste 0 -- -- 92
2020-08-30 00:00:00 17.9 4 Sudeste 16 Noroeste 0 -- -- 87
2020-08-29 23:00:00 19 9 Oeste 19 Oeste 0 -- -- 78
2020-08-29 22:00:00 17.7 4 Sudeste 12 Este 0 -- -- 86
2020-08-29 21:00:00 18.2 5 Este 17 Este 0 -- -- 87
2020-08-29 20:00:00 19.3 11 Nordeste 22 Nordeste 0 -- -- 84
2020-08-29 19:00:00 20 13 Nordeste 23 Nordeste 0 -- -- 88
2020-08-29 18:00:00 19.5 14 Nordeste 26 Nordeste 0 -- -- 91
2020-08-29 17:00:00 19.6 12 Nordeste 21 Nordeste 0.4 -- -- 93
2020-08-29 16:00:00 21 6 Norte 14 Noroeste 0 -- -- 87
2020-08-29 15:00:00 21.4 10 Norte 23 Noroeste 0 -- -- 77
2020-08-29 14:00:00 22.7 9 Norte 21 Este 0 -- -- 69
2020-08-29 13:00:00 22.1 5 Este 19 Sudeste 0 -- -- 71
2020-08-29 12:00:00 21.3 8 Nordeste 23 Este 0 -- -- 70
2020-08-29 11:00:00 20.2 9 Nordeste 20 Norte 0 -- -- 72
2020-08-29 10:00:00 19.6 8 Este 15 Este 0 -- -- 73
2020-08-29 09:00:00 18.7 8 Sudeste 16 Este 0 -- -- 80
2020-08-29 08:00:00 18.2 5 Sudeste 19 Sudeste 0 -- -- 83
2020-08-29 07:00:00 16.9 11 Sudeste 19 Este 0 -- -- 74
2020-08-29 06:00:00 16.4 5 Sudeste 9 Sudeste 0 -- -- 61
2020-08-29 05:00:00 16.7 3 Sur 11 Sudeste 0 -- -- 57
2020-08-29 04:00:00 17 5 Sudeste 11 Este 0 -- -- 50
2020-08-29 03:00:00 16.3 2 Sudoeste 6 Sudeste 0 -- -- 59
2020-08-29 02:00:00 17.2 0 Calma 8 Sur 0 -- -- 51
2020-08-29 01:00:00 18.8 0 Calma 11 Sur 0 -- -- 44
2020-08-29 00:00:00 21 6 Sudeste 14 Sudeste 0 -- -- 27
2020-08-28 23:00:00 23 9 Sudeste 20 Sudeste 0 -- -- 22
2020-08-28 22:00:00 22.9 8 Sudeste 13 Sudeste 0 -- -- 27
2020-08-28 21:00:00 23.5 7 Sudeste 13 Sudeste 0 -- -- 29
2020-08-28 20:00:00 23.1 0 Calma 10 Oeste 0 -- -- 80
2020-08-28 19:00:00 25.2 6 Noroeste 11 Noroeste 0 -- -- 72
2020-08-28 18:00:00 26.4 5 Noroeste 13 Noroeste 0 -- -- 69
2020-08-28 17:00:00 26.3 6 Noroeste 15 Norte 0 -- -- 71
2020-08-28 16:00:00 26.1 9 Norte 15 Noroeste 0 -- -- 70
2020-08-28 15:00:00 26.5 9 Noroeste 14 Norte 0 -- -- 70
2020-08-28 14:00:00 28.1 6 Noroeste 11 Noroeste 0 -- -- 65
2020-08-28 13:00:00 28.9 6 Noroeste 10 Oeste 0 -- -- 62
2020-08-28 12:00:00 30.3 5 Noroeste 9 Noroeste 0 -- -- 56
2020-08-28 11:00:00 31.9 2 Nordeste 8 Norte 0 -- -- 28
2020-08-28 10:00:00 30.5 2 Sur 13 Sur 0 -- -- 34
2020-08-28 09:00:00 27 8 Sur 11 Sur 0 -- -- 32
2020-08-28 08:00:00 26.3 9 Sudoeste 13 Sur 0 -- -- 28
2020-08-28 07:00:00 26.9 9 Sur 16 Sudeste 0 -- -- 25
2020-08-28 06:00:00 25.4 12 Sudeste 14 Sur 0 -- -- 29
2020-08-28 05:00:00 25.9 9 Sudeste 12 Sudeste 0 -- -- 27
2020-08-28 04:00:00 26.3 5 Sur 15 Sur 0 -- -- 27
2020-08-28 03:00:00 26.7 8 Sur 17 Sur 0 -- -- 27
2020-08-28 02:00:00 27 12 Sudeste 14 Sudeste 0 -- -- 28
2020-08-28 01:00:00 26.7 6 Sur 12 Sur 0 -- -- 30
2020-08-28 00:00:00 26.5 7 Sur 11 Sur 0 -- -- 30
2020-08-27 23:00:00 26.4 8 Sur 13 Sur 0 -- -- 32
2020-08-27 22:00:00 26.6 6 Sur 12 Sur 0 -- -- 32
2020-08-27 21:00:00 27.1 8 Sudeste 10 Sur 0 -- -- 42
2020-08-27 20:00:00 30.4 0 Calma 8 Noroeste 0 -- -- 47
2020-08-27 19:00:00 32.1 6 Noroeste 12 Oeste 0 -- -- 43
2020-08-27 18:00:00 32.3 7 Noroeste 12 Noroeste 0 -- -- 47
2020-08-27 17:00:00 31.9 6 Norte -- -- -- -- -- 48
2020-08-27 16:00:00 -- -- -- -- -- -- -- -- --
2020-08-27 15:00:00 -- -- -- -- -- -- -- -- --
2020-08-27 14:00:00 -- -- -- -- -- -- -- -- --
2020-08-27 13:00:00 -- -- -- -- -- -- -- -- --
2020-08-27 12:00:00 35.7 5 Noroeste 9 Norte 0 -- -- 38
2020-08-27 11:00:00 35.7 2 Norte 6 Norte 0 -- -- 33
2020-08-27 10:00:00 32.9 8 Sur 12 Sur 0 -- -- 42
2020-08-27 09:00:00 31.2 10 Sur 22 Sur 0 -- -- 37
2020-08-27 08:00:00 30.4 13 Sur 18 Sur 0 -- -- 35
2020-08-27 07:00:00 29.8 10 Sur 14 Sur 0 -- -- 38
2020-08-27 06:00:00 28.6 14 Sur 18 Sur 0 -- -- 41
2020-08-27 05:00:00 28.8 13 Sudeste 17 Sudeste 0 -- -- 42
2020-08-27 04:00:00 29 12 Sudeste 17 Sur 0 -- -- 42
2020-08-27 03:00:00 29 13 Sudeste 17 Sudeste 0 -- -- 42
2020-08-27 02:00:00 28.6 13 Sudeste 15 Sudeste 0 -- -- 43
2020-08-27 01:00:00 29.4 6 Sur 14 Sur 0 -- -- 39
2020-08-27 00:00:00 28.2 3 Sur 12 Sudeste 0 -- -- 43
2020-08-26 23:00:00 28 7 Sur 13 Sudeste 0 -- -- 44
2020-08-26 22:00:00 27.5 9 Sudeste 13 Sudeste 0 -- -- 50
2020-08-26 21:00:00 28.4 6 Sudeste 9 Sudeste 0 -- -- 48
2020-08-26 20:00:00 30.9 4 Nordeste 7 Norte 0 -- -- 40
2020-08-26 19:00:00 33.1 4 Norte 10 Oeste 0 -- -- 37
2020-08-26 18:00:00 34.1 5 Norte 14 Noroeste 0 -- -- 32
2020-08-26 17:00:00 34.8 9 Oeste 17 Oeste 0 -- -- 31
2020-08-26 16:00:00 31 4 Sudoeste 13 Noroeste 0 -- -- 58
2020-08-26 15:00:00 27.6 5 Norte 14 Noroeste 0 -- -- 71
2020-08-26 14:00:00 26.8 7 Noroeste 15 Noroeste 0 -- -- 72
2020-08-26 13:00:00 26.1 5 Noroeste 11 Noroeste 0 -- -- 75
2020-08-26 12:00:00 25.6 4 Norte 19 Sur 0 -- -- 73
2020-08-26 11:00:00 36.4 13 Sur 37 Sur 0 -- -- 22
2020-08-26 10:00:00 34.7 23 Sur 50 Sur 0 -- -- 21
2020-08-26 09:00:00 34.2 14 Sudeste 28 Sudeste 0 -- -- 16
2020-08-26 08:00:00 33 19 Sur 36 Sur 0 -- -- 16
2020-08-26 07:00:00 32.9 24 Sur 45 Sur 0 -- -- 17
2020-08-26 06:00:00 31.7 24 Sur 40 Sur 0 -- -- 20
2020-08-26 05:00:00 23.2 6 Sudeste 12 Sur 0 -- -- 38
2020-08-26 04:00:00 18.5 5 Sudoeste 12 Sur 0 -- -- 70
2020-08-26 03:00:00 17.1 0 Calma 9 Sur 0 -- -- 85
2020-08-26 02:00:00 17.2 3 Sudeste 7 Sur 0 -- -- 84
2020-08-26 01:00:00 17 0 Calma 5 Sur 0 -- -- 90
2020-08-26 00:00:00 17.1 0 Calma 16 Este 0 -- -- 93
2020-08-25 23:00:00 18.4 7 Sur 13 Sudoeste 0 -- -- 97
2020-08-25 22:00:00 19.4 3 Noroeste 7 Noroeste 0 -- -- 97
2020-08-25 21:00:00 19.6 2 Nordeste 9 Nordeste 0 -- -- 97
2020-08-25 20:00:00 19.6 5 Nordeste 10 Nordeste 0 -- -- 97
2020-08-25 19:00:00 19.6 6 Nordeste 14 Nordeste 0 -- -- 97
2020-08-25 18:00:00 20 6 Nordeste 14 Nordeste 0 -- -- 97
2020-08-25 17:00:00 20 7 Nordeste 16 Nordeste 0 -- -- 96
2020-08-25 16:00:00 20.1 8 Nordeste 16 Nordeste 0 -- -- 94
2020-08-25 15:00:00 20.5 10 Nordeste 17 Nordeste 0 -- -- 93
2020-08-25 14:00:00 20.7 8 Nordeste 16 Nordeste 0 -- -- 92
2020-08-25 13:00:00 20.8 8 Norte 17 Nordeste 0 -- -- 91
2020-08-25 12:00:00 22.6 7 Norte 14 Norte 0 -- -- 78
2020-08-25 11:00:00 21.8 5 Noroeste 11 Noroeste 0 -- -- 79
2020-08-25 10:00:00 19.9 4 Noroeste 10 Noroeste 0 -- -- 85
2020-08-25 09:00:00 18.4 4 Oeste 12 Sur 0 -- -- 86
2020-08-25 08:00:00 16.5 5 Sudoeste 13 Oeste 0 -- -- 85
2020-08-25 07:00:00 16 6 Sudoeste 10 Sudoeste 0 -- -- 81
2020-08-25 06:00:00 16.3 8 Sudoeste 12 Sudoeste 0 -- -- 82
2020-08-25 05:00:00 16.1 7 Sudoeste 10 Sudoeste 0 -- -- 75
2020-08-25 04:00:00 15.9 8 Sudoeste 12 Sudoeste 0 -- -- 87
2020-08-25 03:00:00 16.3 8 Sudoeste 13 Sur 0 -- -- 87
2020-08-25 02:00:00 16.5 3 Sur 10 Sur 0 -- -- 89
2020-08-25 01:00:00 16.8 8 Sur 12 Sur 0 -- -- 89
2020-08-25 00:00:00 17 8 Sur 9 Sur 0 -- -- 90
2020-08-24 23:00:00 18.2 6 Sur 10 Sur 0 -- -- 89
2020-08-24 22:00:00 18.9 2 Sudoeste 14 Nordeste 0 -- -- 92
2020-08-24 21:00:00 19.4 6 Nordeste 13 Norte 0 -- -- 89
2020-08-24 20:00:00 20.4 8 Nordeste 18 Nordeste 0 -- -- 84
2020-08-24 19:00:00 21.4 11 Nordeste 21 Nordeste 0 -- -- 84
2020-08-24 18:00:00 22.1 12 Nordeste 21 Nordeste 0 -- -- 82
2020-08-24 17:00:00 22.8 13 Norte 21 Norte 0 -- -- 78
2020-08-24 16:00:00 24.1 12 Norte 23 Norte 0 -- -- 71
2020-08-24 15:00:00 23.7 10 Norte 18 Norte 0 -- -- 74
2020-08-24 14:00:00 24.5 10 Noroeste 19 Noroeste 0 -- -- 72
2020-08-24 13:00:00 24.3 8 Noroeste 17 Noroeste 0 -- -- 73
2020-08-24 12:00:00 22.9 9 Norte 15 Norte 0 -- -- 76
2020-08-24 11:00:00 22.1 6 Noroeste 12 Noroeste 0 -- -- 75
2020-08-24 10:00:00 20.3 5 Oeste 9 Oeste 0 -- -- 72
2020-08-24 09:00:00 18 4 Sudoeste 10 Sudoeste 0 -- -- 63
2020-08-24 08:00:00 15.8 6 Sudoeste 10 Sudoeste 0 -- -- 59
2020-08-24 07:00:00 15.4 3 Sur 9 Sudoeste 0 -- -- 58
2020-08-24 06:00:00 15.3 5 Sur 12 Sudoeste 0 -- -- 60
2020-08-24 05:00:00 16 4 Sudoeste 9 Sur 0 -- -- 61
2020-08-24 04:00:00 16 5 Sur 9 Sudeste 0 -- -- 59
2020-08-24 03:00:00 16.4 4 Sur 8 Sur 0 -- -- 53
2020-08-24 02:00:00 17.1 3 Sudeste 8 Sur 0 -- -- 54
2020-08-24 01:00:00 16.1 3 Sudeste 6 Sur 0 -- -- 60
2020-08-24 00:00:00 17.6 5 Este 7 Este 0 -- -- 72
2020-08-23 23:00:00 17.6 0 Calma 4 Sur 0 -- -- 74
2020-08-23 22:00:00 18.3 2 Sudeste 4 Sudeste 0 -- -- 66
2020-08-23 21:00:00 20.1 0 Calma 8 Noroeste 0 -- -- 87
2020-08-23 20:00:00 23.2 3 Noroeste 10 Noroeste 0 -- -- 78
2020-08-23 19:00:00 24.5 5 Noroeste 14 Norte 0 -- -- 74
2020-08-23 18:00:00 24.2 9 Norte 19 Norte 0 -- -- 73
2020-08-23 17:00:00 25.9 8 Noroeste 16 Noroeste 0 -- -- 66
2020-08-23 16:00:00 27 8 Noroeste 15 Noroeste 0 -- -- 59
2020-08-23 15:00:00 26.6 6 Noroeste 13 Noroeste 0 -- -- 63
2020-08-23 14:00:00 26.4 7 Noroeste 13 Noroeste 0 -- -- 66
2020-08-23 13:00:00 25.4 7 Noroeste 13 Norte 0 -- -- 71
2020-08-23 12:00:00 24.2 7 Norte 12 Noroeste 0 -- -- 77
2020-08-23 11:00:00 23.7 4 Noroeste 9 Noroeste 0 -- -- 77
2020-08-23 10:00:00 24.4 2 Noroeste 9 Norte 0 -- -- 65
2020-08-23 09:00:00 23.6 4 Sudeste 10 Sur 0 -- -- 39
2020-08-23 08:00:00 21.9 5 Sudeste 13 Sudeste 0 -- -- 35
2020-08-23 07:00:00 21.5 4 Sur 9 Sur 0 -- -- 36
2020-08-23 06:00:00 21.5 4 Sur 16 Sur 0 -- -- 35
2020-08-23 05:00:00 22 5 Sudeste 10 Sudeste 0 -- -- 35
2020-08-23 04:00:00 22.6 5 Sur 11 Sur 0 -- -- 33
2020-08-23 03:00:00 22.9 5 Sudoeste 12 Sudeste 0 -- -- 32
2020-08-23 02:00:00 23.1 6 Sur 10 Sur 0 -- -- 32
2020-08-23 01:00:00 23.7 6 Sur 12 Sur 0 -- -- 32
2020-08-23 00:00:00 22.7 0 Calma 10 Sur 0 -- -- 35
2020-08-22 23:00:00 22.5 3 Sudoeste 8 Sur 0 -- -- 43
2020-08-22 22:00:00 21.9 2 Sur 8 Sur 0 -- -- 68
2020-08-22 21:00:00 21.6 0 Calma 6 Noroeste 0 -- -- 87
2020-08-22 20:00:00 23.8 2 Norte 9 Noroeste 0 -- -- 79
2020-08-22 19:00:00 24.7 5 Noroeste 12 Noroeste 0 -- -- 77
2020-08-22 18:00:00 25.9 7 Noroeste 13 Noroeste 0 -- -- 71
2020-08-22 17:00:00 26.4 7 Norte 13 Norte 0 -- -- 70
2020-08-22 16:00:00 26 8 Norte 14 Noroeste 0 -- -- 72
2020-08-22 15:00:00 26 8 Noroeste 17 Noroeste 0 -- -- 70
2020-08-22 14:00:00 26.2 7 Noroeste 14 Noroeste 0 -- -- 70
2020-08-22 13:00:00 25.6 8 Noroeste 12 Noroeste 0 -- -- 71
2020-08-22 12:00:00 25.8 5 Norte 12 Noroeste 0 -- -- 68
2020-08-22 11:00:00 24.5 6 Noroeste 12 Noroeste 0 -- -- 70
2020-08-22 10:00:00 26.6 0 Calma 8 Oeste 0 -- -- 31
2020-08-22 09:00:00 25.2 2 Oeste 8 Sur 0 -- -- 37
2020-08-22 08:00:00 22.8 4 Sur 8 Sudeste 0 -- -- 32
2020-08-22 07:00:00 22 3 Sur 8 Sudeste 0 -- -- 33
2020-08-22 06:00:00 21.7 4 Sur 10 Sur 0 -- -- 32
2020-08-22 05:00:00 21.4 3 Sur 11 Sudeste 0 -- -- 37
2020-08-22 04:00:00 21.9 6 Sudeste 12 Sudeste 0 -- -- 40
2020-08-22 03:00:00 22.1 4 Sur 11 Oeste 0 -- -- 41
2020-08-22 02:00:00 20.8 5 Sudoeste 10 Noroeste 0 -- -- 50
2020-08-22 01:00:00 21.7 9 Sur 12 Sudeste 0 -- -- 46
2020-08-22 00:00:00 21.7 7 Sur 12 Sudeste 0 -- -- 75
2020-08-21 23:00:00 19.8 0 Calma 11 Sur 0 -- -- 93
2020-08-21 22:00:00 19.8 0 Calma 6 Oeste 0 -- -- 92
2020-08-21 21:00:00 20 0 Calma 9 Noroeste 0 -- -- 91
2020-08-21 20:00:00 21.2 4 Norte 12 Noroeste 0 -- -- 86
2020-08-21 19:00:00 23.7 7 Noroeste 15 Noroeste 0 -- -- 76
2020-08-21 18:00:00 23.7 8 Norte 18 Noroeste 0 -- -- 75
2020-08-21 17:00:00 24.8 9 Norte 17 Norte 0 -- -- 70
2020-08-21 16:00:00 24.5 9 Noroeste 17 Norte 0 -- -- 71
2020-08-21 15:00:00 24.5 10 Norte 22 Norte 0 -- -- 72
2020-08-21 14:00:00 24.5 11 Norte 17 Noroeste 0 -- -- 71
2020-08-21 13:00:00 23.6 9 Norte 14 Noroeste 0 -- -- 74
2020-08-21 12:00:00 23.2 6 Norte 11 Norte 0 -- -- 71
2020-08-21 11:00:00 22.2 6 Norte 10 Noroeste 0 -- -- 71
2020-08-21 10:00:00 22.5 4 Noroeste 8 Noroeste 0 -- -- 52
2020-08-21 09:00:00 19.7 3 Sur 10 Sur 0 -- -- 41
2020-08-21 08:00:00 18.5 7 Sur 17 Sudeste 0 -- -- 33
2020-08-21 07:00:00 17.5 10 Sur 13 Sudeste 0 -- -- 37
2020-08-21 06:00:00 17.3 5 Sur 14 Sudeste 0 -- -- 36
2020-08-21 05:00:00 17.8 8 Sur 13 Sudeste 0 -- -- 30
2020-08-21 04:00:00 17.5 8 Sur 13 Sur 0 -- -- 31
2020-08-21 03:00:00 17.8 8 Sur 12 Sur 0 -- -- 29
2020-08-21 02:00:00 18.1 6 Sudoeste 13 Sudeste 0 -- -- 31
2020-08-21 01:00:00 17.7 6 Sudeste 17 Sur 0 -- -- 35
2020-08-21 00:00:00 18.2 7 Sur 10 Sur 0 -- -- 39